sensor_id;sensor_type;location;lat;lon;timestamp;P1;durP1;ratioP1;P2;durP2;ratioP2
49458;SDS011;35354;51.296;16.924;2023-04-24T00:00:11;10.05;;;8.55;;
49458;SDS011;35354;51.296;16.924;2023-04-24T00:02:39;10.40;;;8.90;;
49458;SDS011;35354;51.296;16.924;2023-04-24T00:05:06;14.02;;;10.15;;
49458;SDS011;35354;51.296;16.924;2023-04-24T00:07:32;14.77;;;10.85;;
49458;SDS011;35354;51.296;16.924;2023-04-24T00:09:58;11.48;;;10.10;;
49458;SDS011;35354;51.296;16.924;2023-04-24T00:12:24;13.32;;;10.68;;
49458;SDS011;35354;51.296;16.924;2023-04-24T00:14:49;12.75;;;11.15;;
49458;SDS011;35354;51.296;16.924;2023-04-24T00:17:15;14.38;;;11.52;;
49458;SDS011;35354;51.296;16.924;2023-04-24T00:19:41;12.43;;;11.10;;
49458;SDS011;35354;51.296;16.924;2023-04-24T00:22:06;13.90;;;11.40;;
49458;SDS011;35354;51.296;16.924;2023-04-24T00:24:32;16.73;;;12.70;;
49458;SDS011;35354;51.296;16.924;2023-04-24T00:26:57;14.02;;;11.73;;
49458;SDS011;35354;51.296;16.924;2023-04-24T00:29:23;16.38;;;12.77;;
49458;SDS011;35354;51.296;16.924;2023-04-24T00:31:48;19.40;;;13.43;;
49458;SDS011;35354;51.296;16.924;2023-04-24T00:34:14;18.45;;;15.60;;
49458;SDS011;35354;51.296;16.924;2023-04-24T00:36:39;18.50;;;15.60;;
49458;SDS011;35354;51.296;16.924;2023-04-24T00:39:05;19.95;;;16.35;;
49458;SDS011;35354;51.296;16.924;2023-04-24T00:41:33;19.02;;;16.52;;
49458;SDS011;35354;51.296;16.924;2023-04-24T00:43:59;17.25;;;15.40;;
49458;SDS011;35354;51.296;16.924;2023-04-24T00:46:25;19.75;;;16.00;;
49458;SDS011;35354;51.296;16.924;2023-04-24T00:48:51;17.20;;;15.20;;
49458;SDS011;35354;51.296;16.924;2023-04-24T00:51:16;16.35;;;14.65;;
49458;SDS011;35354;51.296;16.924;2023-04-24T00:53:42;16.98;;;15.10;;
49458;SDS011;35354;51.296;16.924;2023-04-24T00:56:07;14.98;;;13.45;;
49458;SDS011;35354;51.296;16.924;2023-04-24T00:58:32;17.13;;;15.35;;
49458;SDS011;35354;51.296;16.924;2023-04-24T01:00:58;16.48;;;14.77;;
49458;SDS011;35354;51.296;16.924;2023-04-24T01:03:26;15.40;;;13.75;;
49458;SDS011;35354;51.296;16.924;2023-04-24T01:05:55;18.00;;;14.88;;
49458;SDS011;35354;51.296;16.924;2023-04-24T01:08:20;17.27;;;14.98;;
49458;SDS011;35354;51.296;16.924;2023-04-24T01:10:49;15.75;;;14.05;;
49458;SDS011;35354;51.296;16.924;2023-04-24T01:13:17;18.45;;;14.50;;
49458;SDS011;35354;51.296;16.924;2023-04-24T01:15:43;15.75;;;13.77;;
49458;SDS011;35354;51.296;16.924;2023-04-24T01:18:09;17.90;;;14.05;;
49458;SDS011;35354;51.296;16.924;2023-04-24T01:20:35;19.50;;;15.40;;
49458;SDS011;35354;51.296;16.924;2023-04-24T01:23:04;20.13;;;15.52;;
49458;SDS011;35354;51.296;16.924;2023-04-24T01:25:30;18.90;;;15.77;;
49458;SDS011;35354;51.296;16.924;2023-04-24T01:27:56;17.83;;;15.55;;
49458;SDS011;35354;51.296;16.924;2023-04-24T01:30:21;18.88;;;15.70;;
49458;SDS011;35354;51.296;16.924;2023-04-24T01:32:46;19.40;;;15.77;;
49458;SDS011;35354;51.296;16.924;2023-04-24T01:35:13;21.98;;;17.33;;
49458;SDS011;35354;51.296;16.924;2023-04-24T01:37:39;22.00;;;17.20;;
49458;SDS011;35354;51.296;16.924;2023-04-24T01:40:05;23.20;;;19.00;;
49458;SDS011;35354;51.296;16.924;2023-04-24T01:42:32;25.35;;;20.15;;
49458;SDS011;35354;51.296;16.924;2023-04-24T01:44:58;23.75;;;19.90;;
49458;SDS011;35354;51.296;16.924;2023-04-24T01:47:24;25.45;;;19.15;;
49458;SDS011;35354;51.296;16.924;2023-04-24T01:49:50;24.98;;;20.00;;
49458;SDS011;35354;51.296;16.924;2023-04-24T01:52:16;23.27;;;19.80;;
49458;SDS011;35354;51.296;16.924;2023-04-24T01:54:43;20.92;;;17.77;;
49458;SDS011;35354;51.296;16.924;2023-04-24T01:57:08;20.08;;;17.80;;
49458;SDS011;35354;51.296;16.924;2023-04-24T01:59:34;20.83;;;17.05;;
49458;SDS011;35354;51.296;16.924;2023-04-24T02:02:01;21.83;;;18.15;;
49458;SDS011;35354;51.296;16.924;2023-04-24T02:04:27;22.67;;;16.88;;
49458;SDS011;35354;51.296;16.924;2023-04-24T02:06:52;22.42;;;17.50;;
49458;SDS011;35354;51.296;16.924;2023-04-24T02:09:18;20.40;;;17.23;;
49458;SDS011;35354;51.296;16.924;2023-04-24T02:11:43;21.70;;;17.25;;
49458;SDS011;35354;51.296;16.924;2023-04-24T02:14:08;20.00;;;17.75;;
49458;SDS011;35354;51.296;16.924;2023-04-24T02:16:34;22.83;;;17.23;;
49458;SDS011;35354;51.296;16.924;2023-04-24T02:19:00;20.48;;;16.85;;
49458;SDS011;35354;51.296;16.924;2023-04-24T02:21:26;21.02;;;16.40;;
49458;SDS011;35354;51.296;16.924;2023-04-24T02:23:52;20.52;;;16.98;;
49458;SDS011;35354;51.296;16.924;2023-04-24T02:26:18;21.20;;;18.00;;
49458;SDS011;35354;51.296;16.924;2023-04-24T02:28:43;23.17;;;17.95;;
49458;SDS011;35354;51.296;16.924;2023-04-24T02:31:09;23.35;;;17.83;;
49458;SDS011;35354;51.296;16.924;2023-04-24T02:33:34;24.02;;;17.40;;
49458;SDS011;35354;51.296;16.924;2023-04-24T02:36:00;22.30;;;17.73;;
49458;SDS011;35354;51.296;16.924;2023-04-24T02:38:26;23.45;;;18.52;;
49458;SDS011;35354;51.296;16.924;2023-04-24T02:40:52;20.70;;;17.33;;
49458;SDS011;35354;51.296;16.924;2023-04-24T02:43:17;20.63;;;17.40;;
49458;SDS011;35354;51.296;16.924;2023-04-24T02:45:43;22.80;;;19.25;;
49458;SDS011;35354;51.296;16.924;2023-04-24T02:48:08;22.88;;;18.98;;
49458;SDS011;35354;51.296;16.924;2023-04-24T02:50:33;22.67;;;18.88;;
49458;SDS011;35354;51.296;16.924;2023-04-24T02:52:59;25.48;;;18.90;;
49458;SDS011;35354;51.296;16.924;2023-04-24T02:55:24;24.25;;;20.95;;
49458;SDS011;35354;51.296;16.924;2023-04-24T02:57:50;24.48;;;19.00;;
49458;SDS011;35354;51.296;16.924;2023-04-24T03:00:15;22.20;;;18.58;;
49458;SDS011;35354;51.296;16.924;2023-04-24T03:02:41;22.77;;;17.50;;
49458;SDS011;35354;51.296;16.924;2023-04-24T03:05:06;21.55;;;17.90;;
49458;SDS011;35354;51.296;16.924;2023-04-24T03:07:32;20.02;;;17.83;;
49458;SDS011;35354;51.296;16.924;2023-04-24T03:09:58;22.90;;;19.15;;
49458;SDS011;35354;51.296;16.924;2023-04-24T03:12:24;19.75;;;16.90;;
49458;SDS011;35354;51.296;16.924;2023-04-24T03:14:49;20.25;;;17.58;;
49458;SDS011;35354;51.296;16.924;2023-04-24T03:17:15;20.63;;;17.77;;
49458;SDS011;35354;51.296;16.924;2023-04-24T03:19:40;21.23;;;16.65;;
49458;SDS011;35354;51.296;16.924;2023-04-24T03:22:05;20.00;;;15.95;;
49458;SDS011;35354;51.296;16.924;2023-04-24T03:24:31;21.13;;;16.33;;
49458;SDS011;35354;51.296;16.924;2023-04-24T03:26:57;22.30;;;16.40;;
49458;SDS011;35354;51.296;16.924;2023-04-24T03:29:22;21.08;;;18.10;;
49458;SDS011;35354;51.296;16.924;2023-04-24T03:31:48;19.58;;;16.42;;
49458;SDS011;35354;51.296;16.924;2023-04-24T03:34:13;17.20;;;15.40;;
49458;SDS011;35354;51.296;16.924;2023-04-24T03:36:39;16.38;;;14.00;;
49458;SDS011;35354;51.296;16.924;2023-04-24T03:39:04;19.10;;;15.13;;
49458;SDS011;35354;51.296;16.924;2023-04-24T03:41:30;17.92;;;15.50;;
49458;SDS011;35354;51.296;16.924;2023-04-24T03:43:55;16.42;;;14.40;;
49458;SDS011;35354;51.296;16.924;2023-04-24T03:46:21;18.92;;;15.20;;
49458;SDS011;35354;51.296;16.924;2023-04-24T03:48:46;18.85;;;16.42;;
49458;SDS011;35354;51.296;16.924;2023-04-24T03:51:11;17.63;;;15.00;;
49458;SDS011;35354;51.296;16.924;2023-04-24T03:53:37;19.30;;;15.48;;
49458;SDS011;35354;51.296;16.924;2023-04-24T03:56:02;22.08;;;16.00;;
49458;SDS011;35354;51.296;16.924;2023-04-24T03:58:28;18.90;;;15.80;;
49458;SDS011;35354;51.296;16.924;2023-04-24T04:00:53;18.67;;;15.20;;
49458;SDS011;35354;51.296;16.924;2023-04-24T04:03:18;19.38;;;16.30;;
49458;SDS011;35354;51.296;16.924;2023-04-24T04:05:44;21.52;;;15.82;;
49458;SDS011;35354;51.296;16.924;2023-04-24T04:08:09;21.10;;;16.83;;
49458;SDS011;35354;51.296;16.924;2023-04-24T04:10:35;19.35;;;15.93;;
49458;SDS011;35354;51.296;16.924;2023-04-24T04:13:00;17.85;;;15.77;;
49458;SDS011;35354;51.296;16.924;2023-04-24T04:15:25;20.20;;;15.75;;
49458;SDS011;35354;51.296;16.924;2023-04-24T04:17:51;18.38;;;15.50;;
49458;SDS011;35354;51.296;16.924;2023-04-24T04:20:16;21.58;;;16.35;;
49458;SDS011;35354;51.296;16.924;2023-04-24T04:22:42;20.88;;;16.08;;
49458;SDS011;35354;51.296;16.924;2023-04-24T04:25:07;19.80;;;16.27;;
49458;SDS011;35354;51.296;16.924;2023-04-24T04:27:33;19.20;;;15.65;;
49458;SDS011;35354;51.296;16.924;2023-04-24T04:29:59;22.33;;;15.77;;
49458;SDS011;35354;51.296;16.924;2023-04-24T04:32:32;18.02;;;15.55;;
49458;SDS011;35354;51.296;16.924;2023-04-24T04:34:59;20.65;;;15.93;;
49458;SDS011;35354;51.296;16.924;2023-04-24T04:37:31;21.35;;;15.50;;
49458;SDS011;35354;51.296;16.924;2023-04-24T04:40:00;21.35;;;16.30;;
49458;SDS011;35354;51.296;16.924;2023-04-24T04:42:31;17.27;;;14.63;;
49458;SDS011;35354;51.296;16.924;2023-04-24T04:44:57;18.25;;;15.43;;
49458;SDS011;35354;51.296;16.924;2023-04-24T04:47:23;17.63;;;15.73;;
49458;SDS011;35354;51.296;16.924;2023-04-24T04:49:48;19.38;;;15.30;;
49458;SDS011;35354;51.296;16.924;2023-04-24T04:52:16;18.60;;;15.57;;
49458;SDS011;35354;51.296;16.924;2023-04-24T04:54:42;19.38;;;14.35;;
49458;SDS011;35354;51.296;16.924;2023-04-24T04:57:07;19.80;;;14.38;;
49458;SDS011;35354;51.296;16.924;2023-04-24T04:59:33;16.60;;;13.85;;
49458;SDS011;35354;51.296;16.924;2023-04-24T05:01:58;17.90;;;13.88;;
49458;SDS011;35354;51.296;16.924;2023-04-24T05:04:23;19.52;;;14.20;;
49458;SDS011;35354;51.296;16.924;2023-04-24T05:06:48;14.68;;;12.90;;
49458;SDS011;35354;51.296;16.924;2023-04-24T05:09:16;16.90;;;13.00;;
49458;SDS011;35354;51.296;16.924;2023-04-24T05:11:41;14.43;;;12.00;;
49458;SDS011;35354;51.296;16.924;2023-04-24T05:14:06;15.73;;;12.68;;
49458;SDS011;35354;51.296;16.924;2023-04-24T05:16:32;15.20;;;12.70;;
49458;SDS011;35354;51.296;16.924;2023-04-24T05:18:57;13.40;;;11.43;;
49458;SDS011;35354;51.296;16.924;2023-04-24T05:21:22;14.70;;;12.10;;
49458;SDS011;35354;51.296;16.924;2023-04-24T05:23:48;17.00;;;13.25;;
49458;SDS011;35354;51.296;16.924;2023-04-24T05:26:13;17.70;;;12.63;;
49458;SDS011;35354;51.296;16.924;2023-04-24T05:28:39;14.60;;;12.02;;
49458;SDS011;35354;51.296;16.924;2023-04-24T05:31:05;18.08;;;13.50;;
49458;SDS011;35354;51.296;16.924;2023-04-24T05:33:31;21.40;;;11.68;;
49458;SDS011;35354;51.296;16.924;2023-04-24T05:35:56;14.40;;;11.40;;
49458;SDS011;35354;51.296;16.924;2023-04-24T05:38:22;16.02;;;12.35;;
49458;SDS011;35354;51.296;16.924;2023-04-24T05:40:48;16.23;;;12.45;;
49458;SDS011;35354;51.296;16.924;2023-04-24T05:43:13;16.73;;;13.43;;
49458;SDS011;35354;51.296;16.924;2023-04-24T05:45:38;20.52;;;14.50;;
49458;SDS011;35354;51.296;16.924;2023-04-24T05:48:04;15.20;;;13.48;;
49458;SDS011;35354;51.296;16.924;2023-04-24T05:50:30;18.08;;;14.30;;
49458;SDS011;35354;51.296;16.924;2023-04-24T05:52:56;19.73;;;13.80;;
49458;SDS011;35354;51.296;16.924;2023-04-24T05:55:23;16.88;;;13.63;;
49458;SDS011;35354;51.296;16.924;2023-04-24T05:57:50;17.73;;;13.93;;
49458;SDS011;35354;51.296;16.924;2023-04-24T06:00:16;16.60;;;13.25;;
49458;SDS011;35354;51.296;16.924;2023-04-24T06:02:44;16.83;;;14.23;;
49458;SDS011;35354;51.296;16.924;2023-04-24T06:05:10;14.75;;;13.18;;
49458;SDS011;35354;51.296;16.924;2023-04-24T06:07:36;17.92;;;13.32;;
49458;SDS011;35354;51.296;16.924;2023-04-24T06:10:01;15.07;;;12.90;;
49458;SDS011;35354;51.296;16.924;2023-04-24T06:12:26;16.58;;;12.70;;
49458;SDS011;35354;51.296;16.924;2023-04-24T06:14:52;17.90;;;13.20;;
49458;SDS011;35354;51.296;16.924;2023-04-24T06:17:19;14.45;;;12.93;;
49458;SDS011;35354;51.296;16.924;2023-04-24T06:19:44;14.07;;;12.55;;
49458;SDS011;35354;51.296;16.924;2023-04-24T06:22:09;14.95;;;13.00;;
49458;SDS011;35354;51.296;16.924;2023-04-24T06:24:35;14.10;;;12.63;;
49458;SDS011;35354;51.296;16.924;2023-04-24T06:27:01;14.95;;;12.80;;
49458;SDS011;35354;51.296;16.924;2023-04-24T06:29:26;17.02;;;12.68;;
49458;SDS011;35354;51.296;16.924;2023-04-24T06:31:52;16.17;;;12.88;;
49458;SDS011;35354;51.296;16.924;2023-04-24T06:34:18;15.77;;;12.07;;
49458;SDS011;35354;51.296;16.924;2023-04-24T06:36:43;16.95;;;12.43;;
49458;SDS011;35354;51.296;16.924;2023-04-24T06:39:09;15.63;;;13.50;;
49458;SDS011;35354;51.296;16.924;2023-04-24T06:41:35;13.93;;;12.63;;
49458;SDS011;35354;51.296;16.924;2023-04-24T06:44:00;15.30;;;12.73;;
49458;SDS011;35354;51.296;16.924;2023-04-24T06:46:25;15.02;;;12.57;;
49458;SDS011;35354;51.296;16.924;2023-04-24T06:48:52;15.23;;;13.27;;
49458;SDS011;35354;51.296;16.924;2023-04-24T06:51:21;13.23;;;11.93;;
49458;SDS011;35354;51.296;16.924;2023-04-24T06:53:51;19.50;;;12.77;;
49458;SDS011;35354;51.296;16.924;2023-04-24T06:56:16;14.02;;;12.40;;
49458;SDS011;35354;51.296;16.924;2023-04-24T06:58:42;17.05;;;12.73;;
49458;SDS011;35354;51.296;16.924;2023-04-24T07:01:07;15.18;;;12.80;;
49458;SDS011;35354;51.296;16.924;2023-04-24T07:03:33;14.98;;;12.70;;
49458;SDS011;35354;51.296;16.924;2023-04-24T07:05:58;13.90;;;10.90;;
49458;SDS011;35354;51.296;16.924;2023-04-24T07:08:23;11.57;;;10.48;;
49458;SDS011;35354;51.296;16.924;2023-04-24T07:10:50;13.68;;;9.75;;
49458;SDS011;35354;51.296;16.924;2023-04-24T07:13:16;11.68;;;8.77;;
49458;SDS011;35354;51.296;16.924;2023-04-24T07:15:42;10.85;;;8.50;;
49458;SDS011;35354;51.296;16.924;2023-04-24T07:18:07;11.48;;;8.65;;
49458;SDS011;35354;51.296;16.924;2023-04-24T07:20:33;9.55;;;7.65;;
49458;SDS011;35354;51.296;16.924;2023-04-24T07:22:59;8.68;;;7.88;;
49458;SDS011;35354;51.296;16.924;2023-04-24T07:25:24;8.52;;;7.72;;
49458;SDS011;35354;51.296;16.924;2023-04-24T07:27:49;8.40;;;7.60;;
49458;SDS011;35354;51.296;16.924;2023-04-24T07:30:15;7.88;;;7.07;;
49458;SDS011;35354;51.296;16.924;2023-04-24T07:32:40;7.85;;;6.95;;
49458;SDS011;35354;51.296;16.924;2023-04-24T07:35:06;7.53;;;6.82;;
49458;SDS011;35354;51.296;16.924;2023-04-24T07:37:31;8.27;;;7.47;;
49458;SDS011;35354;51.296;16.924;2023-04-24T07:39:57;8.05;;;7.35;;
49458;SDS011;35354;51.296;16.924;2023-04-24T07:42:22;8.00;;;7.20;;
49458;SDS011;35354;51.296;16.924;2023-04-24T07:44:48;7.53;;;6.70;;
49458;SDS011;35354;51.296;16.924;2023-04-24T07:47:13;7.60;;;6.63;;
49458;SDS011;35354;51.296;16.924;2023-04-24T07:49:42;7.88;;;7.07;;
49458;SDS011;35354;51.296;16.924;2023-04-24T07:52:07;7.40;;;6.70;;
49458;SDS011;35354;51.296;16.924;2023-04-24T07:54:33;7.07;;;6.47;;
49458;SDS011;35354;51.296;16.924;2023-04-24T07:56:58;7.43;;;6.70;;
49458;SDS011;35354;51.296;16.924;2023-04-24T07:59:23;6.93;;;6.32;;
49458;SDS011;35354;51.296;16.924;2023-04-24T08:01:49;6.93;;;6.32;;
49458;SDS011;35354;51.296;16.924;2023-04-24T08:04:14;6.82;;;5.88;;
49458;SDS011;35354;51.296;16.924;2023-04-24T08:06:40;6.80;;;6.20;;
49458;SDS011;35354;51.296;16.924;2023-04-24T08:09:05;6.70;;;6.00;;
49458;SDS011;35354;51.296;16.924;2023-04-24T08:11:31;6.00;;;5.50;;
49458;SDS011;35354;51.296;16.924;2023-04-24T08:13:56;5.70;;;5.20;;
49458;SDS011;35354;51.296;16.924;2023-04-24T08:16:22;6.70;;;5.60;;
49458;SDS011;35354;51.296;16.924;2023-04-24T08:18:48;6.95;;;5.95;;
49458;SDS011;35354;51.296;16.924;2023-04-24T08:21:14;5.85;;;5.38;;
49458;SDS011;35354;51.296;16.924;2023-04-24T08:23:42;6.00;;;5.40;;
49458;SDS011;35354;51.296;16.924;2023-04-24T08:26:07;7.30;;;6.57;;
49458;SDS011;35354;51.296;16.924;2023-04-24T08:28:33;5.97;;;5.47;;
49458;SDS011;35354;51.296;16.924;2023-04-24T08:30:58;6.60;;;5.90;;
49458;SDS011;35354;51.296;16.924;2023-04-24T08:33:23;6.32;;;5.82;;
49458;SDS011;35354;51.296;16.924;2023-04-24T08:35:49;5.47;;;5.03;;
49458;SDS011;35354;51.296;16.924;2023-04-24T08:38:15;6.20;;;5.60;;
49458;SDS011;35354;51.296;16.924;2023-04-24T08:40:41;7.68;;;6.80;;
49458;SDS011;35354;51.296;16.924;2023-04-24T08:43:07;6.68;;;6.07;;
49458;SDS011;35354;51.296;16.924;2023-04-24T08:45:33;6.88;;;6.28;;
49458;SDS011;35354;51.296;16.924;2023-04-24T08:47:58;6.68;;;6.18;;
49458;SDS011;35354;51.296;16.924;2023-04-24T08:50:24;6.85;;;6.25;;
49458;SDS011;35354;51.296;16.924;2023-04-24T08:52:50;7.38;;;6.43;;
49458;SDS011;35354;51.296;16.924;2023-04-24T08:55:18;6.93;;;6.32;;
49458;SDS011;35354;51.296;16.924;2023-04-24T08:57:45;6.88;;;6.28;;
49458;SDS011;35354;51.296;16.924;2023-04-24T09:00:14;8.10;;;6.60;;
49458;SDS011;35354;51.296;16.924;2023-04-24T09:02:43;7.85;;;6.10;;
49458;SDS011;35354;51.296;16.924;2023-04-24T09:05:12;7.63;;;6.95;;
49458;SDS011;35354;51.296;16.924;2023-04-24T09:07:38;9.98;;;7.45;;
49458;SDS011;35354;51.296;16.924;2023-04-24T09:10:04;7.15;;;6.55;;
49458;SDS011;35354;51.296;16.924;2023-04-24T09:12:31;8.32;;;7.18;;
49458;SDS011;35354;51.296;16.924;2023-04-24T09:14:57;7.03;;;5.95;;
49458;SDS011;35354;51.296;16.924;2023-04-24T09:17:24;7.82;;;7.10;;
49458;SDS011;35354;51.296;16.924;2023-04-24T09:19:51;9.02;;;6.68;;
49458;SDS011;35354;51.296;16.924;2023-04-24T09:22:17;6.35;;;5.75;;
49458;SDS011;35354;51.296;16.924;2023-04-24T09:24:43;7.15;;;5.90;;
49458;SDS011;35354;51.296;16.924;2023-04-24T09:27:10;7.47;;;6.78;;
49458;SDS011;35354;51.296;16.924;2023-04-24T09:29:37;7.25;;;6.55;;
49458;SDS011;35354;51.296;16.924;2023-04-24T09:32:17;7.85;;;7.05;;
49458;SDS011;35354;51.296;16.924;2023-04-24T09:34:47;7.53;;;6.82;;
49458;SDS011;35354;51.296;16.924;2023-04-24T09:37:18;9.98;;;6.60;;
49458;SDS011;35354;51.296;16.924;2023-04-24T09:40:09;7.75;;;6.80;;
49458;SDS011;35354;51.296;16.924;2023-04-24T09:42:37;9.05;;;6.82;;
49458;SDS011;35354;51.296;16.924;2023-04-24T09:45:02;7.60;;;6.10;;
49458;SDS011;35354;51.296;16.924;2023-04-24T09:47:35;7.78;;;7.07;;
49458;SDS011;35354;51.296;16.924;2023-04-24T09:50:08;7.75;;;7.10;;
49458;SDS011;35354;51.296;16.924;2023-04-24T09:52:41;7.53;;;6.55;;
49458;SDS011;35354;51.296;16.924;2023-04-24T09:55:11;6.63;;;5.93;;
49458;SDS011;35354;51.296;16.924;2023-04-24T10:00:36;6.13;;;5.50;;
49458;SDS011;35354;51.296;16.924;2023-04-24T10:03:03;8.88;;;6.57;;
49458;SDS011;35354;51.296;16.924;2023-04-24T10:05:30;7.20;;;6.50;;
49458;SDS011;35354;51.296;16.924;2023-04-24T10:08:01;6.30;;;5.70;;
49458;SDS011;35354;51.296;16.924;2023-04-24T10:10:28;6.13;;;5.53;;
49458;SDS011;35354;51.296;16.924;2023-04-24T10:12:54;5.95;;;5.38;;
49458;SDS011;35354;51.296;16.924;2023-04-24T10:15:20;6.32;;;5.47;;
49458;SDS011;35354;51.296;16.924;2023-04-24T10:17:49;5.40;;;4.90;;
49458;SDS011;35354;51.296;16.924;2023-04-24T10:20:23;5.72;;;5.22;;
49458;SDS011;35354;51.296;16.924;2023-04-24T10:22:52;5.65;;;5.07;;
49458;SDS011;35354;51.296;16.924;2023-04-24T10:25:19;5.43;;;4.93;;
49458;SDS011;35354;51.296;16.924;2023-04-24T10:27:46;6.10;;;5.45;;
49458;SDS011;35354;51.296;16.924;2023-04-24T10:30:13;6.28;;;5.68;;
49458;SDS011;35354;51.296;16.924;2023-04-24T10:32:39;6.72;;;6.03;;
49458;SDS011;35354;51.296;16.924;2023-04-24T10:35:06;9.65;;;7.70;;
49458;SDS011;35354;51.296;16.924;2023-04-24T10:37:40;7.88;;;7.07;;
49458;SDS011;35354;51.296;16.924;2023-04-24T10:40:19;7.40;;;6.78;;
49458;SDS011;35354;51.296;16.924;2023-04-24T10:42:51;6.93;;;6.32;;
49458;SDS011;35354;51.296;16.924;2023-04-24T10:45:19;7.72;;;6.30;;
49458;SDS011;35354;51.296;16.924;2023-04-24T10:47:56;7.22;;;6.53;;
49458;SDS011;35354;51.296;16.924;2023-04-24T10:50:24;8.52;;;6.90;;
49458;SDS011;35354;51.296;16.924;2023-04-24T10:52:51;8.05;;;6.40;;
49458;SDS011;35354;51.296;16.924;2023-04-24T10:55:39;6.57;;;5.97;;
49458;SDS011;35354;51.296;16.924;2023-04-24T10:58:07;7.03;;;5.47;;
49458;SDS011;35354;51.296;16.924;2023-04-24T11:00:32;6.35;;;5.65;;
49458;SDS011;35354;51.296;16.924;2023-04-24T11:03:00;7.35;;;6.65;;
49458;SDS011;35354;51.296;16.924;2023-04-24T11:05:48;7.03;;;6.22;;
49458;SDS011;35354;51.296;16.924;2023-04-24T11:08:21;8.07;;;6.95;;
49458;SDS011;35354;51.296;16.924;2023-04-24T11:10:54;8.30;;;7.47;;
49458;SDS011;35354;51.296;16.924;2023-04-24T11:13:22;7.53;;;6.82;;
49458;SDS011;35354;51.296;16.924;2023-04-24T11:18:39;6.65;;;6.05;;
49458;SDS011;35354;51.296;16.924;2023-04-24T11:21:16;7.50;;;6.80;;
49458;SDS011;35354;51.296;16.924;2023-04-24T11:23:42;7.18;;;6.55;;
49458;SDS011;35354;51.296;16.924;2023-04-24T11:26:18;7.68;;;6.97;;
49458;SDS011;35354;51.296;16.924;2023-04-24T11:28:46;9.20;;;7.25;;
49458;SDS011;35354;51.296;16.924;2023-04-24T11:34:10;9.38;;;7.93;;
49458;SDS011;35354;51.296;16.924;2023-04-24T11:36:37;7.78;;;7.05;;
49458;SDS011;35354;51.296;16.924;2023-04-24T11:39:03;8.07;;;7.38;;
49458;SDS011;35354;51.296;16.924;2023-04-24T11:41:28;10.50;;;8.38;;
49458;SDS011;35354;51.296;16.924;2023-04-24T11:43:54;8.20;;;7.40;;
49458;SDS011;35354;51.296;16.924;2023-04-24T11:46:20;7.82;;;6.75;;
49458;SDS011;35354;51.296;16.924;2023-04-24T11:48:46;7.45;;;6.85;;
49458;SDS011;35354;51.296;16.924;2023-04-24T11:51:12;7.50;;;6.47;;
49458;SDS011;35354;51.296;16.924;2023-04-24T11:53:38;8.70;;;6.85;;
49458;SDS011;35354;51.296;16.924;2023-04-24T11:56:04;8.55;;;7.18;;
49458;SDS011;35354;51.296;16.924;2023-04-24T11:58:34;8.18;;;7.38;;
49458;SDS011;35354;51.296;16.924;2023-04-24T12:01:01;7.72;;;6.55;;
49458;SDS011;35354;51.296;16.924;2023-04-24T12:03:26;7.88;;;7.05;;
49458;SDS011;35354;51.296;16.924;2023-04-24T12:05:52;7.80;;;7.10;;
49458;SDS011;35354;51.296;16.924;2023-04-24T12:08:27;7.55;;;6.90;;
49458;SDS011;35354;51.296;16.924;2023-04-24T12:10:53;7.97;;;6.50;;
49458;SDS011;35354;51.296;16.924;2023-04-24T12:13:18;11.77;;;6.93;;
49458;SDS011;35354;51.296;16.924;2023-04-24T12:15:44;8.82;;;7.97;;
49458;SDS011;35354;51.296;16.924;2023-04-24T12:18:11;8.60;;;7.78;;
49458;SDS011;35354;51.296;16.924;2023-04-24T12:20:37;9.63;;;8.32;;
49458;SDS011;35354;51.296;16.924;2023-04-24T12:23:03;9.18;;;8.32;;
49458;SDS011;35354;51.296;16.924;2023-04-24T12:25:29;9.65;;;8.82;;
49458;SDS011;35354;51.296;16.924;2023-04-24T12:30:30;8.88;;;7.00;;
49458;SDS011;35354;51.296;16.924;2023-04-24T12:32:58;8.27;;;7.35;;
49458;SDS011;35354;51.296;16.924;2023-04-24T12:35:25;7.82;;;7.10;;
49458;SDS011;35354;51.296;16.924;2023-04-24T12:37:54;6.75;;;6.15;;
49458;SDS011;35354;51.296;16.924;2023-04-24T12:40:20;5.63;;;4.85;;
49458;SDS011;35354;51.296;16.924;2023-04-24T12:42:49;4.47;;;3.80;;
49458;SDS011;35354;51.296;16.924;2023-04-24T12:45:16;3.53;;;2.70;;
49458;SDS011;35354;51.296;16.924;2023-04-24T12:47:43;2.65;;;2.10;;
49458;SDS011;35354;51.296;16.924;2023-04-24T12:50:11;1.95;;;1.73;;
49458;SDS011;35354;51.296;16.924;2023-04-24T12:52:37;2.40;;;2.20;;
49458;SDS011;35354;51.296;16.924;2023-04-24T12:55:04;3.33;;;2.40;;
49458;SDS011;35354;51.296;16.924;2023-04-24T12:57:32;3.30;;;2.53;;
49458;SDS011;35354;51.296;16.924;2023-04-24T12:59:58;3.58;;;2.17;;
49458;SDS011;35354;51.296;16.924;2023-04-24T13:02:24;2.38;;;2.17;;
49458;SDS011;35354;51.296;16.924;2023-04-24T13:04:51;4.03;;;2.63;;
49458;SDS011;35354;51.296;16.924;2023-04-24T13:07:17;5.05;;;2.08;;
49458;SDS011;35354;51.296;16.924;2023-04-24T13:09:43;3.42;;;2.38;;
49458;SDS011;35354;51.296;16.924;2023-04-24T13:12:09;2.78;;;2.03;;
49458;SDS011;35354;51.296;16.924;2023-04-24T13:14:35;2.22;;;2.08;;
49458;SDS011;35354;51.296;16.924;2023-04-24T13:17:01;2.20;;;2.00;;
49458;SDS011;35354;51.296;16.924;2023-04-24T13:19:27;3.45;;;2.85;;
49458;SDS011;35354;51.296;16.924;2023-04-24T13:21:54;3.33;;;2.05;;
49458;SDS011;35354;51.296;16.924;2023-04-24T13:24:21;3.70;;;3.40;;
49458;SDS011;35354;51.296;16.924;2023-04-24T13:26:49;3.28;;;2.50;;
49458;SDS011;35354;51.296;16.924;2023-04-24T13:29:15;4.20;;;3.90;;
49458;SDS011;35354;51.296;16.924;2023-04-24T13:31:40;2.70;;;2.28;;
49458;SDS011;35354;51.296;16.924;2023-04-24T13:34:06;5.55;;;1.77;;
49458;SDS011;35354;51.296;16.924;2023-04-24T13:36:31;2.65;;;1.90;;
49458;SDS011;35354;51.296;16.924;2023-04-24T13:38:56;4.43;;;2.67;;
49458;SDS011;35354;51.296;16.924;2023-04-24T13:41:22;4.63;;;3.10;;
49458;SDS011;35354;51.296;16.924;2023-04-24T13:43:47;7.78;;;7.07;;
49458;SDS011;35354;51.296;16.924;2023-04-24T13:46:12;2.85;;;2.65;;
49458;SDS011;35354;51.296;16.924;2023-04-24T13:48:38;4.53;;;4.13;;
49458;SDS011;35354;51.296;16.924;2023-04-24T13:51:03;2.42;;;2.20;;
49458;SDS011;35354;51.296;16.924;2023-04-24T13:53:28;1.67;;;1.58;;
49458;SDS011;35354;51.296;16.924;2023-04-24T13:55:54;1.83;;;1.65;;
49458;SDS011;35354;51.296;16.924;2023-04-24T13:58:19;1.67;;;1.20;;
49458;SDS011;35354;51.296;16.924;2023-04-24T14:00:45;2.13;;;1.73;;
49458;SDS011;35354;51.296;16.924;2023-04-24T14:03:10;3.45;;;2.22;;
49458;SDS011;35354;51.296;16.924;2023-04-24T14:05:36;2.17;;;1.67;;
49458;SDS011;35354;51.296;16.924;2023-04-24T14:08:02;2.58;;;1.60;;
49458;SDS011;35354;51.296;16.924;2023-04-24T14:10:27;2.40;;;2.20;;
49458;SDS011;35354;51.296;16.924;2023-04-24T14:12:53;2.47;;;1.85;;
49458;SDS011;35354;51.296;16.924;2023-04-24T14:15:18;2.33;;;1.67;;
49458;SDS011;35354;51.296;16.924;2023-04-24T14:17:44;2.55;;;2.15;;
49458;SDS011;35354;51.296;16.924;2023-04-24T14:20:09;2.45;;;2.25;;
49458;SDS011;35354;51.296;16.924;2023-04-24T14:22:35;1.75;;;1.42;;
49458;SDS011;35354;51.296;16.924;2023-04-24T14:25:00;2.70;;;2.10;;
49458;SDS011;35354;51.296;16.924;2023-04-24T14:27:25;2.65;;;2.45;;